sensor_id;sensor_type;location;lat;lon;timestamp;P1;durP1;ratioP1;P2;durP2;ratioP2
22983;SDS011;11658;48.908;9.140;2024-03-23T05:02:43;15.10;;;11.83;;
22983;SDS011;11658;48.908;9.140;2024-03-23T05:05:10;14.40;;;11.60;;
22983;SDS011;11658;48.908;9.140;2024-03-23T05:07:36;11.67;;;10.43;;
22983;SDS011;11658;48.908;9.140;2024-03-23T05:10:02;13.03;;;10.33;;
22983;SDS011;11658;48.908;9.140;2024-03-23T05:12:28;13.00;;;10.87;;
22983;SDS011;11658;48.908;9.140;2024-03-23T05:14:53;12.07;;;10.40;;
22983;SDS011;11658;48.908;9.140;2024-03-23T05:17:19;15.47;;;10.83;;
22983;SDS011;11658;48.908;9.140;2024-03-23T05:19:45;14.50;;;11.00;;
22983;SDS011;11658;48.908;9.140;2024-03-23T05:22:10;12.40;;;10.77;;
22983;SDS011;11658;48.908;9.140;2024-03-23T05:24:36;14.80;;;11.13;;
22983;SDS011;11658;48.908;9.140;2024-03-23T05:27:01;12.57;;;10.27;;
22983;SDS011;11658;48.908;9.140;2024-03-23T05:29:27;11.07;;;9.00;;
22983;SDS011;11658;48.908;9.140;2024-03-23T05:31:54;10.10;;;8.83;;
22983;SDS011;11658;48.908;9.140;2024-03-23T05:34:22;12.43;;;9.27;;
22983;SDS011;11658;48.908;9.140;2024-03-23T05:36:47;11.40;;;8.67;;
22983;SDS011;11658;48.908;9.140;2024-03-23T05:39:14;10.37;;;8.47;;
22983;SDS011;11658;48.908;9.140;2024-03-23T05:41:41;11.00;;;9.00;;
22983;SDS011;11658;48.908;9.140;2024-03-23T05:44:07;11.37;;;8.53;;
22983;SDS011;11658;48.908;9.140;2024-03-23T05:46:33;10.70;;;8.23;;
22983;SDS011;11658;48.908;9.140;2024-03-23T05:49:00;9.67;;;7.93;;
22983;SDS011;11658;48.908;9.140;2024-03-23T05:51:27;9.53;;;7.77;;
22983;SDS011;11658;48.908;9.140;2024-03-23T05:53:53;8.10;;;7.17;;
22983;SDS011;11658;48.908;9.140;2024-03-23T05:56:19;7.27;;;6.53;;
22983;SDS011;11658;48.908;9.140;2024-03-23T05:58:45;7.93;;;5.90;;
22983;SDS011;11658;48.908;9.140;2024-03-23T06:01:11;7.57;;;5.20;;
22983;SDS011;11658;48.908;9.140;2024-03-23T06:03:37;7.10;;;5.97;;
22983;SDS011;11658;48.908;9.140;2024-03-23T06:06:03;7.63;;;5.77;;
22983;SDS011;11658;48.908;9.140;2024-03-23T06:08:29;6.60;;;5.67;;
22983;SDS011;11658;48.908;9.140;2024-03-23T06:10:55;6.47;;;5.40;;
22983;SDS011;11658;48.908;9.140;2024-03-23T06:13:20;7.03;;;5.23;;
22983;SDS011;11658;48.908;9.140;2024-03-23T06:15:49;7.37;;;5.13;;
22983;SDS011;11658;48.908;9.140;2024-03-23T06:18:15;6.13;;;4.77;;
22983;SDS011;11658;48.908;9.140;2024-03-23T06:20:41;5.30;;;4.80;;
22983;SDS011;11658;48.908;9.140;2024-03-23T06:23:06;4.73;;;3.93;;
22983;SDS011;11658;48.908;9.140;2024-03-23T06:25:32;4.63;;;3.70;;
22983;SDS011;11658;48.908;9.140;2024-03-23T06:27:57;4.10;;;3.40;;
22983;SDS011;11658;48.908;9.140;2024-03-23T06:30:23;3.07;;;2.77;;
22983;SDS011;11658;48.908;9.140;2024-03-23T06:32:49;3.20;;;2.83;;
22983;SDS011;11658;48.908;9.140;2024-03-23T06:35:14;2.90;;;2.50;;
22983;SDS011;11658;48.908;9.140;2024-03-23T06:37:40;3.17;;;2.87;;
22983;SDS011;11658;48.908;9.140;2024-03-23T06:40:06;2.90;;;2.10;;
22983;SDS011;11658;48.908;9.140;2024-03-23T06:42:34;2.33;;;1.97;;
22983;SDS011;11658;48.908;9.140;2024-03-23T06:45:00;2.00;;;1.80;;
22983;SDS011;11658;48.908;9.140;2024-03-23T06:47:26;2.00;;;1.80;;
22983;SDS011;11658;48.908;9.140;2024-03-23T06:49:52;4.30;;;1.57;;
22983;SDS011;11658;48.908;9.140;2024-03-23T06:52:17;1.27;;;1.17;;
22983;SDS011;11658;48.908;9.140;2024-03-23T06:54:43;1.00;;;0.90;;
22983;SDS011;11658;48.908;9.140;2024-03-23T06:57:09;0.93;;;0.90;;
22983;SDS011;11658;48.908;9.140;2024-03-23T06:59:36;0.73;;;0.73;;
22983;SDS011;11658;48.908;9.140;2024-03-23T07:02:03;0.93;;;0.83;;
22983;SDS011;11658;48.908;9.140;2024-03-23T07:04:30;0.83;;;0.83;;
22983;SDS011;11658;48.908;9.140;2024-03-23T07:06:55;0.80;;;0.77;;
22983;SDS011;11658;48.908;9.140;2024-03-23T07:09:21;0.90;;;0.90;;
22983;SDS011;11658;48.908;9.140;2024-03-23T07:11:51;0.70;;;0.70;;
22983;SDS011;11658;48.908;9.140;2024-03-23T07:14:18;1.00;;;0.80;;
22983;SDS011;11658;48.908;9.140;2024-03-23T07:16:44;1.10;;;0.93;;
22983;SDS011;11658;48.908;9.140;2024-03-23T07:19:09;0.60;;;0.60;;
22983;SDS011;11658;48.908;9.140;2024-03-23T07:21:35;1.00;;;1.00;;
22983;SDS011;11658;48.908;9.140;2024-03-23T07:24:00;0.90;;;0.90;;
22983;SDS011;11658;48.908;9.140;2024-03-23T07:26:26;0.70;;;0.70;;
22983;SDS011;11658;48.908;9.140;2024-03-23T07:28:52;0.80;;;0.80;;
22983;SDS011;11658;48.908;9.140;2024-03-23T07:31:18;0.60;;;0.60;;
22983;SDS011;11658;48.908;9.140;2024-03-23T07:33:48;0.87;;;0.87;;
22983;SDS011;11658;48.908;9.140;2024-03-23T07:36:14;0.80;;;0.80;;
22983;SDS011;11658;48.908;9.140;2024-03-23T07:38:40;1.10;;;1.00;;
22983;SDS011;11658;48.908;9.140;2024-03-23T07:43:39;0.90;;;0.90;;
22983;SDS011;11658;48.908;9.140;2024-03-23T07:46:07;0.73;;;0.73;;
22983;SDS011;11658;48.908;9.140;2024-03-23T07:48:33;1.00;;;1.00;;
22983;SDS011;11658;48.908;9.140;2024-03-23T07:51:03;1.67;;;1.20;;
22983;SDS011;11658;48.908;9.140;2024-03-23T07:53:36;0.90;;;0.90;;
22983;SDS011;11658;48.908;9.140;2024-03-23T07:56:05;0.90;;;0.90;;
22983;SDS011;11658;48.908;9.140;2024-03-23T07:58:32;1.10;;;1.00;;
22983;SDS011;11658;48.908;9.140;2024-03-23T08:03:33;1.20;;;1.00;;
22983;SDS011;11658;48.908;9.140;2024-03-23T08:06:06;0.60;;;0.60;;
22983;SDS011;11658;48.908;9.140;2024-03-23T08:08:33;0.53;;;0.53;;
22983;SDS011;11658;48.908;9.140;2024-03-23T08:10:58;0.70;;;0.70;;
22983;SDS011;11658;48.908;9.140;2024-03-23T08:13:24;0.70;;;0.70;;
22983;SDS011;11658;48.908;9.140;2024-03-23T08:15:50;0.43;;;0.43;;
22983;SDS011;11658;48.908;9.140;2024-03-23T08:18:15;0.50;;;0.50;;
22983;SDS011;11658;48.908;9.140;2024-03-23T08:20:41;0.50;;;0.50;;
22983;SDS011;11658;48.908;9.140;2024-03-23T08:23:07;0.53;;;0.50;;
22983;SDS011;11658;48.908;9.140;2024-03-23T08:25:32;0.60;;;0.60;;
22983;SDS011;11658;48.908;9.140;2024-03-23T08:27:59;0.63;;;0.63;;
22983;SDS011;11658;48.908;9.140;2024-03-23T08:30:25;2.60;;;0.70;;
22983;SDS011;11658;48.908;9.140;2024-03-23T08:32:50;0.53;;;0.50;;
22983;SDS011;11658;48.908;9.140;2024-03-23T08:35:16;0.40;;;0.40;;
22983;SDS011;11658;48.908;9.140;2024-03-23T08:37:42;1.90;;;0.90;;
22983;SDS011;11658;48.908;9.140;2024-03-23T08:40:08;1.03;;;0.80;;
22983;SDS011;11658;48.908;9.140;2024-03-23T08:42:34;1.07;;;0.77;;
22983;SDS011;11658;48.908;9.140;2024-03-23T08:45:00;1.13;;;0.90;;
22983;SDS011;11658;48.908;9.140;2024-03-23T08:47:25;1.27;;;0.83;;
22983;SDS011;11658;48.908;9.140;2024-03-23T08:49:51;1.83;;;0.90;;
22983;SDS011;11658;48.908;9.140;2024-03-23T08:52:17;2.60;;;0.90;;
22983;SDS011;11658;48.908;9.140;2024-03-23T08:54:42;2.10;;;0.90;;
22983;SDS011;11658;48.908;9.140;2024-03-23T08:57:08;2.40;;;0.90;;
22983;SDS011;11658;48.908;9.140;2024-03-23T08:59:34;1.70;;;0.90;;
22983;SDS011;11658;48.908;9.140;2024-03-23T09:01:59;1.77;;;1.10;;
22983;SDS011;11658;48.908;9.140;2024-03-23T09:04:25;1.17;;;0.87;;
22983;SDS011;11658;48.908;9.140;2024-03-23T09:06:51;2.50;;;1.10;;
22983;SDS011;11658;48.908;9.140;2024-03-23T09:09:16;1.97;;;1.20;;
22983;SDS011;11658;48.908;9.140;2024-03-23T09:11:42;3.53;;;1.23;;
22983;SDS011;11658;48.908;9.140;2024-03-23T09:14:08;2.13;;;1.17;;
22983;SDS011;11658;48.908;9.140;2024-03-23T09:16:34;2.60;;;1.30;;
22983;SDS011;11658;48.908;9.140;2024-03-23T09:19:00;4.50;;;1.30;;
22983;SDS011;11658;48.908;9.140;2024-03-23T09:21:25;3.27;;;1.80;;
22983;SDS011;11658;48.908;9.140;2024-03-23T09:23:51;3.07;;;1.80;;
22983;SDS011;11658;48.908;9.140;2024-03-23T09:26:16;3.27;;;2.10;;
22983;SDS011;11658;48.908;9.140;2024-03-23T09:28:42;4.00;;;2.00;;
22983;SDS011;11658;48.908;9.140;2024-03-23T09:31:08;2.60;;;1.90;;
22983;SDS011;11658;48.908;9.140;2024-03-23T09:33:36;3.33;;;2.23;;
22983;SDS011;11658;48.908;9.140;2024-03-23T09:36:05;4.30;;;2.17;;
22983;SDS011;11658;48.908;9.140;2024-03-23T09:38:32;7.27;;;2.43;;
22983;SDS011;11658;48.908;9.140;2024-03-23T09:40:58;2.60;;;1.80;;
22983;SDS011;11658;48.908;9.140;2024-03-23T09:43:24;3.37;;;2.13;;
22983;SDS011;11658;48.908;9.140;2024-03-23T09:45:50;5.83;;;2.20;;
22983;SDS011;11658;48.908;9.140;2024-03-23T09:48:16;4.23;;;2.00;;
22983;SDS011;11658;48.908;9.140;2024-03-23T09:50:43;3.90;;;2.33;;
22983;SDS011;11658;48.908;9.140;2024-03-23T09:53:10;4.10;;;2.40;;
22983;SDS011;11658;48.908;9.140;2024-03-23T09:55:37;3.97;;;2.13;;
22983;SDS011;11658;48.908;9.140;2024-03-23T09:58:04;3.97;;;2.00;;
22983;SDS011;11658;48.908;9.140;2024-03-23T10:00:30;3.77;;;2.30;;
22983;SDS011;11658;48.908;9.140;2024-03-23T10:02:56;3.93;;;2.30;;
22983;SDS011;11658;48.908;9.140;2024-03-23T10:05:26;5.73;;;2.37;;
22983;SDS011;11658;48.908;9.140;2024-03-23T10:07:53;4.53;;;2.30;;
22983;SDS011;11658;48.908;9.140;2024-03-23T10:10:19;8.17;;;3.20;;
22983;SDS011;11658;48.908;9.140;2024-03-23T10:12:46;2.87;;;1.97;;
22983;SDS011;11658;48.908;9.140;2024-03-23T10:15:34;3.90;;;2.30;;
22983;SDS011;11658;48.908;9.140;2024-03-23T10:18:19;2.97;;;2.20;;
22983;SDS011;11658;48.908;9.140;2024-03-23T10:20:50;4.50;;;2.10;;
22983;SDS011;11658;48.908;9.140;2024-03-23T10:23:35;4.30;;;2.30;;
22983;SDS011;11658;48.908;9.140;2024-03-23T10:28:55;3.67;;;2.10;;
22983;SDS011;11658;48.908;9.140;2024-03-23T10:31:23;7.73;;;2.33;;
22983;SDS011;11658;48.908;9.140;2024-03-23T10:33:49;3.97;;;1.87;;
22983;SDS011;11658;48.908;9.140;2024-03-23T10:36:15;3.00;;;1.97;;
22983;SDS011;11658;48.908;9.140;2024-03-23T10:38:42;3.30;;;1.77;;
22983;SDS011;11658;48.908;9.140;2024-03-23T10:41:08;5.10;;;2.30;;
22983;SDS011;11658;48.908;9.140;2024-03-23T10:43:35;4.50;;;2.00;;
22983;SDS011;11658;48.908;9.140;2024-03-23T10:46:01;4.37;;;2.10;;
22983;SDS011;11658;48.908;9.140;2024-03-23T10:48:27;7.77;;;2.17;;
22983;SDS011;11658;48.908;9.140;2024-03-23T10:50:53;7.50;;;2.70;;
22983;SDS011;11658;48.908;9.140;2024-03-23T10:53:20;7.47;;;3.03;;
22983;SDS011;11658;48.908;9.140;2024-03-23T10:55:50;7.27;;;3.20;;
22983;SDS011;11658;48.908;9.140;2024-03-23T10:58:16;6.83;;;2.87;;
22983;SDS011;11658;48.908;9.140;2024-03-23T11:00:45;6.33;;;3.30;;
22983;SDS011;11658;48.908;9.140;2024-03-23T11:06:01;8.10;;;4.57;;
22983;SDS011;11658;48.908;9.140;2024-03-23T11:08:38;5.63;;;3.87;;
22983;SDS011;11658;48.908;9.140;2024-03-23T11:11:26;5.93;;;3.90;;
22983;SDS011;11658;48.908;9.140;2024-03-23T11:13:52;5.50;;;4.27;;
22983;SDS011;11658;48.908;9.140;2024-03-23T11:18:53;4.77;;;3.13;;
22983;SDS011;11658;48.908;9.140;2024-03-23T11:24:21;5.27;;;3.07;;
22983;SDS011;11658;48.908;9.140;2024-03-23T11:26:47;5.03;;;3.17;;
22983;SDS011;11658;48.908;9.140;2024-03-23T11:29:15;4.27;;;3.07;;
22983;SDS011;11658;48.908;9.140;2024-03-23T11:31:48;5.53;;;3.10;;
22983;SDS011;11658;48.908;9.140;2024-03-23T11:34:17;4.63;;;3.03;;
22983;SDS011;11658;48.908;9.140;2024-03-23T11:36:46;4.13;;;3.57;;
22983;SDS011;11658;48.908;9.140;2024-03-23T11:39:19;5.43;;;3.13;;
22983;SDS011;11658;48.908;9.140;2024-03-23T11:41:49;4.80;;;3.60;;
22983;SDS011;11658;48.908;9.140;2024-03-23T11:46:41;5.87;;;3.50;;
22983;SDS011;11658;48.908;9.140;2024-03-23T11:49:07;3.93;;;3.07;;
22983;SDS011;11658;48.908;9.140;2024-03-23T11:51:46;5.03;;;3.33;;
22983;SDS011;11658;48.908;9.140;2024-03-23T11:54:13;5.13;;;3.70;;
22983;SDS011;11658;48.908;9.140;2024-03-23T11:56:38;4.43;;;2.90;;
22983;SDS011;11658;48.908;9.140;2024-03-23T11:59:04;3.13;;;2.63;;
22983;SDS011;11658;48.908;9.140;2024-03-23T12:01:29;5.33;;;2.20;;
22983;SDS011;11658;48.908;9.140;2024-03-23T12:03:56;4.93;;;2.33;;
22983;SDS011;11658;48.908;9.140;2024-03-23T12:06:21;3.83;;;2.13;;
22983;SDS011;11658;48.908;9.140;2024-03-23T12:08:47;5.07;;;1.73;;
22983;SDS011;11658;48.908;9.140;2024-03-23T12:13:40;2.93;;;1.50;;
22983;SDS011;11658;48.908;9.140;2024-03-23T12:18:45;4.17;;;1.60;;
22983;SDS011;11658;48.908;9.140;2024-03-23T12:21:16;3.43;;;1.60;;
22983;SDS011;11658;48.908;9.140;2024-03-23T12:23:42;4.10;;;1.60;;
22983;SDS011;11658;48.908;9.140;2024-03-23T12:26:12;3.20;;;1.90;;
22983;SDS011;11658;48.908;9.140;2024-03-23T12:28:38;4.20;;;1.60;;
22983;SDS011;11658;48.908;9.140;2024-03-23T12:31:04;4.37;;;1.80;;
22983;SDS011;11658;48.908;9.140;2024-03-23T12:33:30;4.40;;;1.50;;
22983;SDS011;11658;48.908;9.140;2024-03-23T12:35:56;3.47;;;1.83;;
22983;SDS011;11658;48.908;9.140;2024-03-23T12:38:21;2.40;;;1.43;;
22983;SDS011;11658;48.908;9.140;2024-03-23T12:40:47;2.97;;;1.47;;
22983;SDS011;11658;48.908;9.140;2024-03-23T12:43:14;4.37;;;1.67;;
22983;SDS011;11658;48.908;9.140;2024-03-23T12:45:39;3.93;;;1.60;;
22983;SDS011;11658;48.908;9.140;2024-03-23T12:48:05;5.33;;;1.70;;
22983;SDS011;11658;48.908;9.140;2024-03-23T12:50:31;3.40;;;1.60;;
22983;SDS011;11658;48.908;9.140;2024-03-23T12:52:57;3.43;;;1.50;;
22983;SDS011;11658;48.908;9.140;2024-03-23T12:55:23;6.83;;;1.70;;
22983;SDS011;11658;48.908;9.140;2024-03-23T12:57:48;5.43;;;1.80;;
22983;SDS011;11658;48.908;9.140;2024-03-23T13:00:14;5.03;;;1.70;;
22983;SDS011;11658;48.908;9.140;2024-03-23T13:02:42;5.97;;;1.77;;
22983;SDS011;11658;48.908;9.140;2024-03-23T13:05:09;4.30;;;1.73;;
22983;SDS011;11658;48.908;9.140;2024-03-23T13:07:35;5.07;;;1.87;;
22983;SDS011;11658;48.908;9.140;2024-03-23T13:10:02;4.23;;;2.00;;
22983;SDS011;11658;48.908;9.140;2024-03-23T13:12:28;3.83;;;2.10;;
22983;SDS011;11658;48.908;9.140;2024-03-23T13:14:54;5.57;;;2.00;;
22983;SDS011;11658;48.908;9.140;2024-03-23T13:17:20;5.23;;;2.13;;
22983;SDS011;11658;48.908;9.140;2024-03-23T13:19:45;3.07;;;1.77;;
22983;SDS011;11658;48.908;9.140;2024-03-23T13:22:11;4.00;;;1.70;;
22983;SDS011;11658;48.908;9.140;2024-03-23T13:24:36;4.80;;;1.80;;
22983;SDS011;11658;48.908;9.140;2024-03-23T13:27:03;5.33;;;1.87;;
22983;SDS011;11658;48.908;9.140;2024-03-23T13:29:30;3.93;;;1.43;;
22983;SDS011;11658;48.908;9.140;2024-03-23T13:31:56;3.67;;;1.70;;
22983;SDS011;11658;48.908;9.140;2024-03-23T13:34:21;3.87;;;1.80;;
22983;SDS011;11658;48.908;9.140;2024-03-23T13:36:47;3.03;;;1.33;;
22983;SDS011;11658;48.908;9.140;2024-03-23T13:39:13;5.10;;;1.20;;
22983;SDS011;11658;48.908;9.140;2024-03-23T13:41:41;3.53;;;1.33;;
22983;SDS011;11658;48.908;9.140;2024-03-23T13:44:08;5.00;;;2.03;;
22983;SDS011;11658;48.908;9.140;2024-03-23T13:46:38;4.57;;;1.60;;
22983;SDS011;11658;48.908;9.140;2024-03-23T13:49:04;4.43;;;1.43;;
22983;SDS011;11658;48.908;9.140;2024-03-23T13:51:31;8.07;;;1.40;;
22983;SDS011;11658;48.908;9.140;2024-03-23T13:53:56;4.43;;;1.50;;
22983;SDS011;11658;48.908;9.140;2024-03-23T13:56:25;4.37;;;1.40;;
22983;SDS011;11658;48.908;9.140;2024-03-23T13:58:52;2.30;;;1.50;;
22983;SDS011;11658;48.908;9.140;2024-03-23T14:01:19;5.77;;;1.30;;
22983;SDS011;11658;48.908;9.140;2024-03-23T14:03:44;1.70;;;1.60;;
22983;SDS011;11658;48.908;9.140;2024-03-23T14:06:10;3.47;;;1.30;;
22983;SDS011;11658;48.908;9.140;2024-03-23T14:08:36;2.33;;;1.20;;
22983;SDS011;11658;48.908;9.140;2024-03-23T14:11:06;3.20;;;1.40;;
22983;SDS011;11658;48.908;9.140;2024-03-23T14:13:32;2.73;;;1.40;;
22983;SDS011;11658;48.908;9.140;2024-03-23T14:15:58;2.00;;;1.30;;
22983;SDS011;11658;48.908;9.140;2024-03-23T14:18:24;3.80;;;1.30;;
22983;SDS011;11658;48.908;9.140;2024-03-23T14:20:56;4.93;;;1.80;;
22983;SDS011;11658;48.908;9.140;2024-03-23T14:23:26;2.67;;;1.50;;
22983;SDS011;11658;48.908;9.140;2024-03-23T14:25:53;3.37;;;1.80;;
22983;SDS011;11658;48.908;9.140;2024-03-23T14:28:19;4.53;;;1.53;;
22983;SDS011;11658;48.908;9.140;2024-03-23T14:30:44;4.90;;;1.70;;
22983;SDS011;11658;48.908;9.140;2024-03-23T14:33:10;5.20;;;2.20;;
22983;SDS011;11658;48.908;9.140;2024-03-23T14:35:36;3.80;;;1.33;;
22983;SDS011;11658;48.908;9.140;2024-03-23T14:38:03;2.67;;;1.60;;
22983;SDS011;11658;48.908;9.140;2024-03-23T14:40:28;3.03;;;1.47;;
22983;SDS011;11658;48.908;9.140;2024-03-23T14:42:54;5.37;;;1.60;;
22983;SDS011;11658;48.908;9.140;2024-03-23T14:45:23;6.20;;;1.50;;
22983;SDS011;11658;48.908;9.140;2024-03-23T14:47:50;4.10;;;1.47;;
22983;SDS011;11658;48.908;9.140;2024-03-23T14:50:16;3.23;;;1.40;;
22983;SDS011;11658;48.908;9.140;2024-03-23T14:52:43;3.33;;;1.33;;
22983;SDS011;11658;48.908;9.140;2024-03-23T14:55:12;1.93;;;1.10;;
22983;SDS011;11658;48.908;9.140;2024-03-23T14:57:38;2.67;;;1.00;;
22983;SDS011;11658;48.908;9.140;2024-03-23T15:00:08;2.67;;;1.10;;
22983;SDS011;11658;48.908;9.140;2024-03-23T15:02:37;0.93;;;0.70;;
22983;SDS011;11658;48.908;9.140;2024-03-23T15:05:04;1.90;;;0.70;;
22983;SDS011;11658;48.908;9.140;2024-03-23T15:07:32;1.77;;;0.87;;
22983;SDS011;11658;48.908;9.140;2024-03-23T15:09:58;1.53;;;0.70;;
22983;SDS011;11658;48.908;9.140;2024-03-23T15:12:24;0.93;;;0.70;;
22983;SDS011;11658;48.908;9.140;2024-03-23T15:14:50;2.97;;;0.70;;
22983;SDS011;11658;48.908;9.140;2024-03-23T15:17:15;2.33;;;0.80;;
22983;SDS011;11658;48.908;9.140;2024-03-23T15:19:41;1.77;;;0.70;;
22983;SDS011;11658;48.908;9.140;2024-03-23T15:22:07;1.87;;;0.83;;
22983;SDS011;11658;48.908;9.140;2024-03-23T15:24:33;0.77;;;0.60;;
22983;SDS011;11658;48.908;9.140;2024-03-23T15:27:00;2.33;;;0.60;;
22983;SDS011;11658;48.908;9.140;2024-03-23T15:29:26;2.00;;;0.80;;
22983;SDS011;11658;48.908;9.140;2024-03-23T15:31:51;1.37;;;0.67;;
22983;SDS011;11658;48.908;9.140;2024-03-23T15:34:18;2.73;;;0.63;;
22983;SDS011;11658;48.908;9.140;2024-03-23T15:36:46;3.33;;;0.90;;
22983;SDS011;11658;48.908;9.140;2024-03-23T15:39:14;1.00;;;0.70;;
22983;SDS011;11658;48.908;9.140;2024-03-23T15:41:39;1.27;;;0.80;;
22983;SDS011;11658;48.908;9.140;2024-03-23T15:44:05;1.27;;;0.90;;
22983;SDS011;11658;48.908;9.140;2024-03-23T15:46:31;1.30;;;0.70;;
22983;SDS011;11658;48.908;9.140;2024-03-23T15:48:56;0.77;;;0.73;;
22983;SDS011;11658;48.908;9.140;2024-03-23T15:51:22;1.63;;;0.70;;
22983;SDS011;11658;48.908;9.140;2024-03-23T15:53:48;2.30;;;0.67;;
22983;SDS011;11658;48.908;9.140;2024-03-23T15:56:17;0.93;;;0.70;;
22983;SDS011;11658;48.908;9.140;2024-03-23T15:58:42;0.90;;;0.60;;
22983;SDS011;11658;48.908;9.140;2024-03-23T16:01:08;1.40;;;0.83;;
22983;SDS011;11658;48.908;9.140;2024-03-23T16:03:35;2.00;;;1.00;;
22983;SDS011;11658;48.908;9.140;2024-03-23T16:06:02;3.03;;;0.70;;
22983;SDS011;11658;48.908;9.140;2024-03-23T16:08:29;2.80;;;0.80;;
22983;SDS011;11658;48.908;9.140;2024-03-23T16:10:59;2.43;;;1.00;;
22983;SDS011;11658;48.908;9.140;2024-03-23T16:13:25;3.37;;;1.40;;
22983;SDS011;11658;48.908;9.140;2024-03-23T16:15:56;2.50;;;1.10;;
22983;SDS011;11658;48.908;9.140;2024-03-23T16:18:26;2.87;;;1.10;;
22983;SDS011;11658;48.908;9.140;2024-03-23T16:20:54;1.70;;;1.20;;
22983;SDS011;11658;48.908;9.140;2024-03-23T16:23:23;1.77;;;0.80;;
22983;SDS011;11658;48.908;9.140;2024-03-23T16:25:49;2.33;;;1.03;;
22983;SDS011;11658;48.908;9.140;2024-03-23T16:28:22;2.10;;;1.20;;
22983;SDS011;11658;48.908;9.140;2024-03-23T16:30:53;1.97;;;1.50;;
22983;SDS011;11658;48.908;9.140;2024-03-23T16:33:23;3.27;;;1.40;;
22983;SDS011;11658;48.908;9.140;2024-03-23T16:38:22;3.80;;;1.10;;
22983;SDS011;11658;48.908;9.140;2024-03-23T16:40:54;3.33;;;1.40;;
22983;SDS011;11658;48.908;9.140;2024-03-23T16:43:20;1.17;;;0.60;;
22983;SDS011;11658;48.908;9.140;2024-03-23T16:45:56;2.87;;;1.00;;
22983;SDS011;11658;48.908;9.140;2024-03-23T16:48:26;1.67;;;0.70;;
22983;SDS011;11658;48.908;9.140;2024-03-23T16:50:53;1.73;;;0.80;;
22983;SDS011;11658;48.908;9.140;2024-03-23T16:53:21;3.47;;;1.00;;
22983;SDS011;11658;48.908;9.140;2024-03-23T16:55:47;4.30;;;0.97;;
22983;SDS011;11658;48.908;9.140;2024-03-23T16:58:20;2.70;;;1.00;;
22983;SDS011;11658;48.908;9.140;2024-03-23T17:00:45;1.17;;;0.73;;
22983;SDS011;11658;48.908;9.140;2024-03-23T17:03:13;1.37;;;0.53;;
22983;SDS011;11658;48.908;9.140;2024-03-23T17:05:39;1.97;;;0.90;;
22983;SDS011;11658;48.908;9.140;2024-03-23T17:08:05;1.00;;;0.70;;
22983;SDS011;11658;48.908;9.140;2024-03-23T17:10:31;3.63;;;0.70;;
22983;SDS011;11658;48.908;9.140;2024-03-23T17:12:57;0.77;;;0.67;;
22983;SDS011;11658;48.908;9.140;2024-03-23T17:15:23;1.67;;;0.80;;
22983;SDS011;11658;48.908;9.140;2024-03-23T17:17:48;1.53;;;0.80;;
22983;SDS011;11658;48.908;9.140;2024-03-23T17:20:14;1.93;;;1.07;;
22983;SDS011;11658;48.908;9.140;2024-03-23T17:22:40;1.50;;;0.97;;
22983;SDS011;11658;48.908;9.140;2024-03-23T17:25:06;1.27;;;0.80;;
22983;SDS011;11658;48.908;9.140;2024-03-23T17:27:32;0.97;;;0.63;;
22983;SDS011;11658;48.908;9.140;2024-03-23T17:29:58;0.87;;;0.67;;
22983;SDS011;11658;48.908;9.140;2024-03-23T17:32:24;1.20;;;1.10;;
22983;SDS011;11658;48.908;9.140;2024-03-23T17:34:52;1.70;;;1.07;;
22983;SDS011;11658;48.908;9.140;2024-03-23T17:37:17;1.47;;;0.87;;
22983;SDS011;11658;48.908;9.140;2024-03-23T17:39:44;0.70;;;0.70;;
22983;SDS011;11658;48.908;9.140;2024-03-23T17:42:10;1.77;;;0.70;;
22983;SDS011;11658;48.908;9.140;2024-03-23T17:44:36;1.03;;;0.93;;
22983;SDS011;11658;48.908;9.140;2024-03-23T17:47:01;1.33;;;1.07;;
22983;SDS011;11658;48.908;9.140;2024-03-23T17:49:27;1.20;;;1.10;;
22983;SDS011;11658;48.908;9.140;2024-03-23T17:51:52;1.77;;;1.30;;
22983;SDS011;11658;48.908;9.140;2024-03-23T17:54:18;5.27;;;1.10;;
22983;SDS011;11658;48.908;9.140;2024-03-23T17:56:44;1.90;;;1.07;;
22983;SDS011;11658;48.908;9.140;2024-03-23T17:59:10;2.30;;;0.73;;
22983;SDS011;11658;48.908;9.140;2024-03-23T18:01:36;1.57;;;0.90;;
22983;SDS011;11658;48.908;9.140;2024-03-23T18:04:01;2.00;;;0.70;;
22983;SDS011;11658;48.908;9.140;2024-03-23T18:06:27;1.00;;;1.00;;
22983;SDS011;11658;48.908;9.140;2024-03-23T18:08:52;1.30;;;0.83;;
22983;SDS011;11658;48.908;9.140;2024-03-23T18:11:18;0.90;;;0.90;;
22983;SDS011;11658;48.908;9.140;2024-03-23T18:13:43;3.27;;;1.33;;
22983;SDS011;11658;48.908;9.140;2024-03-23T18:16:09;1.53;;;1.13;;
22983;SDS011;11658;48.908;9.140;2024-03-23T18:18:35;1.83;;;1.37;;
22983;SDS011;11658;48.908;9.140;2024-03-23T18:21:01;3.17;;;1.40;;
22983;SDS011;11658;48.908;9.140;2024-03-23T18:23:27;2.60;;;1.40;;
22983;SDS011;11658;48.908;9.140;2024-03-23T18:25:56;2.83;;;1.47;;
22983;SDS011;11658;48.908;9.140;2024-03-23T18:28:25;6.07;;;3.27;;
22983;SDS011;11658;48.908;9.140;2024-03-23T18:31:00;6.90;;;4.60;;
22983;SDS011;11658;48.908;9.140;2024-03-23T18:33:27;4.13;;;3.20;;
22983;SDS011;11658;48.908;9.140;2024-03-23T18:35:58;4.37;;;2.60;;
22983;SDS011;11658;48.908;9.140;2024-03-23T18:38:24;3.20;;;2.20;;
22983;SDS011;11658;48.908;9.140;2024-03-23T18:40:50;3.53;;;2.03;;
22983;SDS011;11658;48.908;9.140;2024-03-23T18:43:15;2.50;;;1.60;;
22983;SDS011;11658;48.908;9.140;2024-03-23T18:45:48;2.47;;;1.93;;
22983;SDS011;11658;48.908;9.140;2024-03-23T18:48:14;2.40;;;2.00;;
22983;SDS011;11658;48.908;9.140;2024-03-23T18:50:40;5.10;;;1.93;;
22983;SDS011;11658;48.908;9.140;2024-03-23T18:53:06;2.37;;;1.50;;
22983;SDS011;11658;48.908;9.140;2024-03-23T18:55:34;1.77;;;1.40;;
22983;SDS011;11658;48.908;9.140;2024-03-23T18:58:03;1.70;;;1.60;;
22983;SDS011;11658;48.908;9.140;2024-03-23T19:00:29;2.90;;;1.97;;
22983;SDS011;11658;48.908;9.140;2024-03-23T19:02:55;2.90;;;1.63;;
22983;SDS011;11658;48.908;9.140;2024-03-23T19:05:22;3.40;;;2.03;;
22983;SDS011;11658;48.908;9.140;2024-03-23T19:07:48;2.43;;;1.77;;
22983;SDS011;11658;48.908;9.140;2024-03-23T19:10:13;3.07;;;2.00;;
22983;SDS011;11658;48.908;9.140;2024-03-23T19:12:39;3.60;;;2.27;;
22983;SDS011;11658;48.908;9.140;2024-03-23T19:15:08;4.07;;;2.10;;
22983;SDS011;11658;48.908;9.140;2024-03-23T19:17:34;2.90;;;1.90;;
22983;SDS011;11658;48.908;9.140;2024-03-23T19:20:00;2.53;;;2.00;;
22983;SDS011;11658;48.908;9.140;2024-03-23T19:22:28;3.50;;;2.10;;
22983;SDS011;11658;48.908;9.140;2024-03-23T19:24:54;4.17;;;2.10;;
22983;SDS011;11658;48.908;9.140;2024-03-23T19:27:20;3.97;;;2.30;;
22983;SDS011;11658;48.908;9.140;2024-03-23T19:29:46;4.43;;;2.07;;
22983;SDS011;11658;48.908;9.140;2024-03-23T19:32:11;2.23;;;1.67;;
22983;SDS011;11658;48.908;9.140;2024-03-23T19:34:37;3.03;;;1.90;;
22983;SDS011;11658;48.908;9.140;2024-03-23T19:37:03;4.10;;;2.20;;
22983;SDS011;11658;48.908;9.140;2024-03-23T19:39:29;2.60;;;1.50;;
22983;SDS011;11658;48.908;9.140;2024-03-23T19:41:55;2.43;;;1.70;;
22983;SDS011;11658;48.908;9.140;2024-03-23T19:44:21;3.50;;;1.50;;
22983;SDS011;11658;48.908;9.140;2024-03-23T19:46:46;2.20;;;1.90;;
22983;SDS011;11658;48.908;9.140;2024-03-23T19:49:12;3.07;;;1.50;;
22983;SDS011;11658;48.908;9.140;2024-03-23T19:51:37;2.37;;;1.63;;
22983;SDS011;11658;48.908;9.140;2024-03-23T19:54:03;3.73;;;2.00;;
22983;SDS011;11658;48.908;9.140;2024-03-23T19:56:28;2.33;;;1.90;;
22983;SDS011;11658;48.908;9.140;2024-03-23T19:58:54;1.50;;;1.40;;
22983;SDS011;11658;48.908;9.140;2024-03-23T20:01:19;2.13;;;1.63;;
22983;SDS011;11658;48.908;9.140;2024-03-23T20:03:46;2.63;;;1.80;;
22983;SDS011;11658;48.908;9.140;2024-03-23T20:06:13;3.27;;;2.10;;
22983;SDS011;11658;48.908;9.140;2024-03-23T20:08:39;3.50;;;2.67;;
22983;SDS011;11658;48.908;9.140;2024-03-23T20:11:04;2.43;;;2.07;;